Time;durP1;ratioP1;P1;durP2;ratioP2;P2;SDS_P1;SDS_P2;PMS_P1;PMS_P2;Temp;Humidity;BMP_temperature;BMP_pressure;BME280_temperature;BME280_humidity;BME280_pressure;Samples;Min_cycle;Max_cycle;Signal;HPM_P1;HPM_P2
2021/03/25 00:00:56;;;;;;;59.97;25.13;;;4.00;97.30;;;;;;4978195;28;20412;-91
2021/03/25 00:03:21;;;;;;;63.20;24.40;;;4.00;97.30;;;;;;4977921;28;20433;-91
2021/03/25 00:05:50;;;;;;;64.17;24.93;;;4.00;97.30;;;;;;4977713;28;20455;-91
2021/03/25 00:08:31;;;;;;;56.90;23.33;;;4.00;97.30;;;;;;4977441;28;20266;-91
2021/03/25 00:24:39;;;;;;;62.53;25.27;;;3.60;97.30;;;;;;5001609;28;20496;-92
2021/03/25 00:27:06;;;;;;;69.27;26.83;;;3.60;97.30;;;;;;4993692;28;20479;-92
2021/03/25 00:29:32;;;;;;;64.83;26.00;;;3.60;97.30;;;;;;4993825;28;20202;-92
2021/03/25 00:31:57;;;;;;;70.30;27.10;;;3.60;97.30;;;;;;5042977;23;20505;-81
2021/03/25 00:34:23;;;;;;;69.47;26.70;;;3.60;97.30;;;;;;5037033;28;20609;-79
2021/03/25 00:36:49;;;;;;;62.00;26.17;;;3.60;97.30;;;;;;5036144;28;20695;-82
2021/03/25 00:39:14;;;;;;;78.03;26.00;;;3.50;97.30;;;;;;5038138;28;20196;-79
2021/03/25 00:41:40;;;;;;;53.27;23.90;;;3.50;97.30;;;;;;5039692;28;20189;-83
2021/03/25 00:44:07;;;;;;;76.70;28.17;;;3.50;97.30;;;;;;5037298;28;20173;-83
2021/03/25 00:46:34;;;;;;;68.90;26.83;;;3.50;97.30;;;;;;5035461;28;20455;-83
2021/03/25 00:49:01;;;;;;;65.70;26.73;;;3.50;97.30;;;;;;5023469;28;20423;-82
2021/03/25 00:51:28;;;;;;;72.50;26.90;;;3.50;97.30;;;;;;5021349;28;20432;-82
2021/03/25 00:53:53;;;;;;;66.33;26.43;;;3.50;97.30;;;;;;5019533;28;21110;-82
2021/03/25 00:56:19;;;;;;;61.83;25.40;;;3.50;97.30;;;;;;5015889;28;20416;-82
2021/03/25 00:58:45;;;;;;;56.27;24.70;;;3.40;97.30;;;;;;5014411;28;20181;-81
2021/03/25 01:01:10;;;;;;;65.47;23.90;;;3.40;97.30;;;;;;5015684;28;20201;-82
2021/03/25 01:03:36;;;;;;;58.03;23.33;;;3.40;97.30;;;;;;5016526;28;20188;-82
2021/03/25 01:06:02;;;;;;;68.30;25.47;;;3.40;97.30;;;;;;5016030;28;20201;-82
2021/03/25 01:08:28;;;;;;;60.77;25.53;;;3.40;97.30;;;;;;5015529;28;20177;-82
2021/03/25 01:11:15;;;;;;;67.93;26.37;;;3.40;97.30;;;;;;5015361;28;20200;-82
2021/03/25 01:13:48;;;;;;;63.93;23.83;;;3.40;97.30;;;;;;5015928;28;20423;-81
2021/03/25 01:16:21;;;;;;;61.90;22.77;;;3.30;97.30;;;;;;5015664;28;20447;-81
2021/03/25 01:18:47;;;;;;;55.13;23.00;;;3.30;97.30;;;;;;5015578;28;20415;-82
2021/03/25 01:21:13;;;;;;;61.40;24.17;;;3.30;97.30;;;;;;5014477;28;20470;-82
2021/03/25 01:23:38;;;;;;;64.63;24.57;;;3.30;97.30;;;;;;5015171;28;20556;-82
2021/03/25 01:26:04;;;;;;;61.20;22.80;;;3.30;97.30;;;;;;5014239;28;20196;-81
2021/03/25 01:28:30;;;;;;;58.93;23.90;;;3.30;97.30;;;;;;5014314;28;20177;-81
2021/03/25 01:30:55;;;;;;;59.53;23.83;;;3.30;97.30;;;;;;5013868;28;20236;-82
2021/03/25 01:33:22;;;;;;;54.77;23.70;;;3.30;97.30;;;;;;5015296;28;20654;-82
2021/03/25 01:35:48;;;;;;;57.33;23.53;;;3.20;97.30;;;;;;5016293;28;20173;-83
2021/03/25 01:38:15;;;;;;;68.77;24.70;;;3.20;97.30;;;;;;5015032;28;20419;-82
2021/03/25 01:40:44;;;;;;;58.83;23.30;;;3.20;97.30;;;;;;5016471;28;20208;-82
2021/03/25 01:43:10;;;;;;;68.60;24.13;;;3.20;97.30;;;;;;5015429;28;20412;-82
2021/03/25 01:46:05;;;;;;;65.97;24.97;;;3.20;97.30;;;;;;5018006;28;20455;-82
2021/03/25 01:48:37;;;;;;;61.73;25.00;;;3.20;97.30;;;;;;5012425;28;20197;-81
2021/03/25 01:51:09;;;;;;;64.90;25.10;;;3.10;97.30;;;;;;5018937;28;20442;-81
2021/03/25 01:53:44;;;;;;;66.53;24.63;;;3.10;97.30;;;;;;5019462;28;20416;-82
2021/03/25 01:56:36;;;;;;;58.33;22.47;;;3.10;97.30;;;;;;5018789;28;20415;-81
2021/03/25 01:59:23;;;;;;;70.23;24.17;;;3.00;97.30;;;;;;5018780;28;20447;-82
2021/03/25 02:01:54;;;;;;;58.13;22.70;;;3.00;97.30;;;;;;5018365;28;20522;-81
2021/03/25 02:04:44;;;;;;;52.20;21.90;;;3.00;97.30;;;;;;5020093;28;20431;-81
2021/03/25 02:07:32;;;;;;;57.90;23.23;;;3.00;97.30;;;;;;5018754;28;20428;-82
2021/03/25 02:10:08;;;;;;;61.00;23.10;;;3.00;97.30;;;;;;5018065;28;20430;-82
2021/03/25 02:12:58;;;;;;;58.23;23.80;;;3.00;97.30;;;;;;5018890;28;20422;-82
2021/03/25 02:15:45;;;;;;;60.00;22.60;;;3.00;97.30;;;;;;5017986;28;20419;-80
2021/03/25 02:18:26;;;;;;;56.87;22.50;;;2.90;97.30;;;;;;5018754;28;20412;-82
2021/03/25 02:21:29;;;;;;;59.47;23.50;;;2.90;97.30;;;;;;5019869;28;20440;-82
2021/03/25 02:24:25;;;;;;;57.23;24.07;;;2.80;97.30;;;;;;5017142;28;20447;-82
2021/03/25 02:27:22;;;;;;;54.50;22.43;;;2.80;97.30;;;;;;5018225;28;20472;-82
2021/03/25 02:30:06;;;;;;;57.07;21.90;;;2.80;97.30;;;;;;5018353;28;20499;-81
2021/03/25 02:32:38;;;;;;;55.90;21.30;;;2.70;97.30;;;;;;5018801;28;20881;-82
2021/03/25 02:35:17;;;;;;;59.07;21.70;;;2.70;97.30;;;;;;5017433;28;20432;-82
2021/03/25 02:37:45;;;;;;;54.23;21.50;;;2.70;97.30;;;;;;5019510;28;20412;-82
2021/03/25 02:40:21;;;;;;;50.63;20.53;;;2.80;97.30;;;;;;5019746;28;20932;-81
2021/03/25 02:43:03;;;;;;;51.03;19.83;;;2.80;97.30;;;;;;5017591;28;20404;-83
2021/03/25 02:45:34;;;;;;;53.27;23.83;;;2.80;97.30;;;;;;5015802;28;20460;-82
2021/03/25 02:48:04;;;;;;;49.53;20.00;;;2.80;97.30;;;;;;5017093;28;20420;-82
2021/03/25 02:50:57;;;;;;;52.50;20.40;;;2.80;97.30;;;;;;5016055;28;20809;-82
2021/03/25 02:53:29;;;;;;;55.20;22.20;;;2.80;97.30;;;;;;5018008;28;20412;-81
2021/03/25 02:56:02;;;;;;;51.30;21.23;;;2.80;97.30;;;;;;5018284;28;20405;-81
2021/03/25 02:58:29;;;;;;;49.67;20.00;;;2.80;97.30;;;;;;5020461;28;20423;-82
2021/03/25 03:01:00;;;;;;;50.17;20.40;;;2.80;97.30;;;;;;5019686;28;20427;-81
2021/03/25 03:03:42;;;;;;;49.50;19.40;;;2.70;97.30;;;;;;5018830;28;20404;-81
2021/03/25 03:06:16;;;;;;;57.93;22.03;;;2.70;97.30;;;;;;5019028;28;21037;-81
2021/03/25 03:08:44;;;;;;;52.43;20.77;;;2.80;97.30;;;;;;5021014;28;20392;-81
2021/03/25 03:11:16;;;;;;;62.73;22.63;;;2.70;97.30;;;;;;5015699;28;20544;-82
2021/03/25 03:13:54;;;;;;;55.27;21.60;;;2.70;97.30;;;;;;5016642;28;20427;-82
2021/03/25 03:16:30;;;;;;;51.60;20.50;;;2.70;97.30;;;;;;5020129;28;20434;-82
2021/03/25 03:19:04;;;;;;;52.70;20.90;;;2.70;97.30;;;;;;5018373;28;20992;-81
2021/03/25 03:21:45;;;;;;;46.77;20.07;;;2.60;97.30;;;;;;5018874;28;20838;-82
2021/03/25 03:24:11;;;;;;;46.63;20.27;;;2.60;97.30;;;;;;5018547;28;20973;-82
2021/03/25 03:26:50;;;;;;;52.17;19.20;;;2.50;97.30;;;;;;5019794;28;20488;-81
2021/03/25 03:29:18;;;;;;;48.83;19.23;;;2.50;97.30;;;;;;5019292;28;20439;-81
2021/03/25 03:32:21;;;;;;;56.27;20.37;;;2.40;97.30;;;;;;5016724;28;20476;-82
2021/03/25 03:34:48;;;;;;;56.03;18.57;;;2.50;97.30;;;;;;5018388;28;20416;-82
2021/03/25 03:37:20;;;;;;;46.20;18.00;;;2.40;97.30;;;;;;5017982;28;20416;-83
2021/03/25 03:39:48;;;;;;;43.57;18.57;;;2.40;97.30;;;;;;5018713;28;20435;-82
2021/03/25 03:42:18;;;;;;;46.03;19.07;;;2.40;97.30;;;;;;5018598;28;20447;-81
2021/03/25 03:44:46;;;;;;;50.87;19.67;;;2.40;97.30;;;;;;5018459;28;20436;-82
2021/03/25 03:47:14;;;;;;;48.47;19.80;;;2.40;97.30;;;;;;5008035;28;20650;-81
2021/03/25 03:49:50;;;;;;;44.90;19.37;;;2.40;97.30;;;;;;4999596;28;20516;-82
2021/03/25 03:52:21;;;;;;;46.37;19.07;;;2.40;97.30;;;;;;4998646;28;20443;-82
2021/03/25 03:54:50;;;;;;;51.30;21.57;;;2.40;97.30;;;;;;4997797;28;21090;-82
2021/03/25 03:57:22;;;;;;;49.10;19.30;;;2.40;97.30;;;;;;4997983;28;20507;-82
2021/03/25 04:00:32;;;;;;;44.60;19.47;;;2.40;97.30;;;;;;4999052;28;20421;-82
2021/03/25 04:03:01;;;;;;;52.93;19.17;;;2.40;97.30;;;;;;4999357;28;20417;-81
2021/03/25 04:05:44;;;;;;;51.83;19.90;;;2.40;97.30;;;;;;4997407;28;20457;-82
2021/03/25 04:08:13;;;;;;;49.03;19.47;;;2.40;97.30;;;;;;4997655;28;20601;-82
2021/03/25 04:10:46;;;;;;;51.60;19.30;;;2.40;97.30;;;;;;4997651;28;20445;-83
2021/03/25 04:13:16;;;;;;;49.33;20.17;;;2.40;97.30;;;;;;4997399;28;20417;-82
2021/03/25 04:15:48;;;;;;;47.07;18.70;;;2.40;97.30;;;;;;4997475;28;20417;-82
2021/03/25 04:18:19;;;;;;;43.10;17.80;;;2.40;97.30;;;;;;4997466;28;20917;-82
2021/03/25 04:20:52;;;;;;;54.57;22.03;;;2.40;97.30;;;;;;4998397;28;20425;-82
2021/03/25 04:23:21;;;;;;;55.80;19.70;;;2.40;97.30;;;;;;4998385;28;20432;-82
2021/03/25 04:26:33;;;;;;;52.17;20.33;;;2.30;97.30;;;;;;4998280;28;20462;-81
2021/03/25 04:29:06;;;;;;;43.77;18.20;;;2.30;97.30;;;;;;4975121;28;20862;-83
2021/03/25 04:31:32;;;;;;;47.37;19.50;;;2.30;97.30;;;;;;4998530;28;20460;-82
2021/03/25 04:34:01;;;;;;;50.90;18.83;;;2.30;97.30;;;;;;4996182;28;20418;-82
2021/03/25 04:36:30;;;;;;;45.37;18.70;;;2.30;97.30;;;;;;4995892;28;20426;-81
2021/03/25 04:38:57;;;;;;;61.53;19.73;;;2.20;97.30;;;;;;4996821;28;20444;-84
2021/03/25 04:41:24;;;;;;;54.20;18.33;;;2.20;97.30;;;;;;4996713;28;20457;-81
2021/03/25 04:44:00;;;;;;;53.60;20.60;;;2.20;97.30;;;;;;4997087;28;20480;-82
2021/03/25 04:46:50;;;;;;;51.63;19.57;;;2.20;97.30;;;;;;4999875;28;20459;-82
2021/03/25 04:49:57;;;;;;;45.17;17.93;;;2.30;97.30;;;;;;5015014;28;20411;-82
2021/03/25 04:52:30;;;;;;;50.07;18.07;;;2.20;97.30;;;;;;5005799;28;20424;-82
2021/03/25 04:55:14;;;;;;;51.30;20.40;;;2.20;97.30;;;;;;5017942;28;20443;-81
2021/03/25 04:57:54;;;;;;;50.53;18.60;;;2.20;97.30;;;;;;5015719;28;20412;-81
2021/03/25 05:00:33;;;;;;;49.90;17.53;;;2.20;97.30;;;;;;5017807;28;20436;-82
2021/03/25 05:03:04;;;;;;;45.53;16.83;;;2.20;97.30;;;;;;5015270;28;20834;-82
2021/03/25 05:05:32;;;;;;;46.13;18.93;;;2.20;97.30;;;;;;5015498;28;20452;-81
2021/03/25 05:08:16;;;;;;;48.17;19.43;;;2.20;97.30;;;;;;5016288;28;20416;-81
2021/03/25 05:11:06;;;;;;;54.00;19.87;;;2.20;97.30;;;;;;5019832;28;20440;-82
2021/03/25 05:13:37;;;;;;;50.50;19.80;;;2.20;97.30;;;;;;5019624;28;20431;-83
2021/03/25 05:16:38;;;;;;;48.03;17.73;;;2.20;97.30;;;;;;5036580;28;20487;-83
2021/03/25 05:19:16;;;;;;;47.17;18.80;;;2.20;97.30;;;;;;5028230;28;20475;-82
2021/03/25 05:21:50;;;;;;;45.70;18.80;;;2.20;97.30;;;;;;5019674;28;20547;-81
2021/03/25 05:24:26;;;;;;;49.37;20.40;;;2.20;97.30;;;;;;5017694;28;20522;-81
2021/03/25 05:27:04;;;;;;;44.17;19.47;;;2.20;97.30;;;;;;5018500;28;20841;-81
2021/03/25 05:29:31;;;;;;;42.27;17.53;;;2.30;97.30;;;;;;5018089;28;20408;-80
2021/03/25 05:31:58;;;;;;;46.00;19.00;;;2.30;97.30;;;;;;5012984;28;20474;-83
2021/03/25 05:34:25;;;;;;;45.83;19.40;;;2.30;97.30;;;;;;5010490;28;20416;-83
2021/03/25 05:36:55;;;;;;;51.50;19.50;;;2.30;97.30;;;;;;5012116;28;20424;-81
2021/03/25 05:39:20;;;;;;;55.00;21.40;;;2.30;97.30;;;;;;5019005;28;20404;-80
2021/03/25 05:42:04;;;;;;;52.77;18.70;;;2.40;97.30;;;;;;5020480;28;20436;-83
2021/03/25 05:44:54;;;;;;;51.60;18.83;;;2.40;97.30;;;;;;5010932;28;20193;-80
2021/03/25 05:47:20;;;;;;;53.70;18.70;;;2.40;97.30;;;;;;5011493;28;20463;-82
2021/03/25 05:50:30;;;;;;;47.70;19.50;;;2.50;97.30;;;;;;5035084;28;20428;-81
2021/03/25 05:53:47;;;;;;;50.50;18.53;;;2.60;97.30;;;;;;5011097;28;20185;-80
2021/03/25 05:56:50;;;;;;;49.70;18.27;;;2.70;97.30;;;;;;4993948;28;20499;-82
2021/03/25 05:59:19;;;;;;;46.30;17.33;;;2.80;97.30;;;;;;4996356;28;20836;-81
2021/03/25 06:01:52;;;;;;;46.63;18.13;;;2.80;97.30;;;;;;5019954;28;20492;-81
2021/03/25 06:04:23;;;;;;;49.93;20.03;;;2.80;97.30;;;;;;5039877;28;20415;-81
2021/03/25 06:07:12;;;;;;;43.07;18.00;;;2.90;97.30;;;;;;5020744;28;20451;-82
2021/03/25 06:10:05;;;;;;;52.67;19.50;;;2.90;97.30;;;;;;5015371;28;20417;-81
2021/03/25 06:12:36;;;;;;;46.90;19.40;;;3.00;97.30;;;;;;5017340;28;20467;-81
2021/03/25 06:15:07;;;;;;;43.53;16.83;;;3.00;97.30;;;;;;5015721;28;20456;-81
2021/03/25 06:17:57;;;;;;;51.43;19.20;;;3.10;97.30;;;;;;5015576;28;20420;-81
2021/03/25 06:20:58;;;;;;;46.33;17.73;;;3.10;97.30;;;;;;5018151;28;20443;-82
2021/03/25 06:23:54;;;;;;;53.20;22.47;;;3.20;97.30;;;;;;5003411;28;20467;-80
2021/03/25 06:26:46;;;;;;;52.00;19.60;;;3.30;97.30;;;;;;5000461;28;20491;-81
2021/03/25 06:29:21;;;;;;;53.60;21.73;;;3.40;97.30;;;;;;5001308;28;20467;-81
2021/03/25 06:32:13;;;;;;;50.93;19.93;;;3.50;97.30;;;;;;5003363;28;20476;-82
2021/03/25 06:34:58;;;;;;;48.40;19.27;;;3.70;97.30;;;;;;5063558;23;20534;-68
2021/03/25 06:37:41;;;;;;;54.30;18.73;;;3.80;97.30;;;;;;4994701;28;20797;-68
2021/03/25 06:40:32;;;;;;;55.97;19.00;;;4.00;97.30;;;;;;5008066;28;20976;-71
2021/03/25 06:43:14;;;;;;;47.50;19.80;;;4.20;97.30;;;;;;4995799;28;20949;-70
2021/03/25 06:45:47;;;;;;;50.63;19.20;;;4.40;97.30;;;;;;4994157;28;20496;-69
2021/03/25 06:48:18;;;;;;;47.63;18.57;;;4.50;97.30;;;;;;4993448;28;20421;-69
2021/03/25 06:50:50;;;;;;;51.90;19.63;;;4.70;97.30;;;;;;4991729;28;20436;-69
2021/03/25 06:53:27;;;;;;;54.80;18.60;;;4.90;97.30;;;;;;4991569;28;20479;-69
2021/03/25 06:56:07;;;;;;;49.57;20.97;;;5.10;97.30;;;;;;4993320;28;20776;-69
2021/03/25 06:58:55;;;;;;;58.47;19.53;;;5.30;97.30;;;;;;4990704;28;20603;-69
2021/03/25 07:01:40;;;;;;;50.63;20.00;;;5.50;97.30;;;;;;4990808;28;20429;-69
2021/03/25 07:04:22;;;;;;;48.90;19.70;;;5.70;97.30;;;;;;4991359;28;20436;-70
2021/03/25 07:06:49;;;;;;;46.77;18.90;;;5.90;97.30;;;;;;4991052;28;20881;-69
2021/03/25 07:09:15;;;;;;;42.67;18.37;;;6.10;97.30;;;;;;4991514;28;20425;-70
2021/03/25 07:11:42;;;;;;;52.90;19.70;;;6.30;97.30;;;;;;4992619;28;20958;-69
2021/03/25 07:14:18;;;;;;;53.27;20.60;;;6.40;97.30;;;;;;4991024;28;20417;-69
2021/03/25 07:16:45;;;;;;;45.60;18.57;;;6.60;97.30;;;;;;4998189;28;20421;-69
2021/03/25 07:19:21;;;;;;;47.33;19.13;;;6.80;97.30;;;;;;5000696;28;20429;-69
2021/03/25 07:21:49;;;;;;;47.90;18.97;;;6.90;97.30;;;;;;4999684;28;20507;-71
2021/03/25 07:24:34;;;;;;;45.97;17.93;;;7.10;97.30;;;;;;4993682;28;20429;-71
2021/03/25 07:27:08;;;;;;;46.40;19.20;;;7.30;97.30;;;;;;4995623;28;20539;-71
2021/03/25 07:29:39;;;;;;;41.97;17.23;;;7.40;97.30;;;;;;4999540;28;20419;-71
2021/03/25 07:32:05;;;;;;;45.33;18.20;;;7.60;97.30;;;;;;4999773;28;20581;-70
2021/03/25 07:34:38;;;;;;;48.70;17.03;;;7.70;97.30;;;;;;4991394;28;20543;-69
2021/03/25 07:37:06;;;;;;;42.00;17.07;;;7.90;97.30;;;;;;4995125;28;20181;-70
2021/03/25 07:39:47;;;;;;;40.23;17.47;;;8.00;97.30;;;;;;5002118;28;20425;-70
2021/03/25 07:42:24;;;;;;;39.90;17.17;;;8.20;97.30;;;;;;5004878;28;20447;-69
2021/03/25 07:44:49;;;;;;;45.30;18.33;;;8.30;96.80;;;;;;5008115;28;20490;-70
2021/03/25 07:47:35;;;;;;;44.07;17.80;;;8.40;97.30;;;;;;4997085;28;20429;-71
2021/03/25 07:50:20;;;;;;;46.70;17.43;;;8.70;97.30;;;;;;5004333;28;20181;-72
2021/03/25 07:52:45;;;;;;;44.07;17.90;;;8.80;96.00;;;;;;5009525;28;20462;-70
2021/03/25 07:55:19;;;;;;;53.33;19.73;;;8.90;95.10;;;;;;5009987;28;20412;-70
2021/03/25 07:57:47;;;;;;;40.30;17.73;;;9.00;95.80;;;;;;5011397;28;20487;-70
2021/03/25 08:00:27;;;;;;;45.27;17.60;;;9.10;94.50;;;;;;5010042;28;20506;-70
2021/03/25 08:03:29;;;;;;;42.40;17.30;;;9.20;94.00;;;;;;5002855;28;20421;-72
2021/03/25 08:05:54;;;;;;;47.40;18.60;;;9.30;94.20;;;;;;4950774;29;20472;-72
2021/03/25 08:08:34;;;;;;;55.27;19.47;;;9.40;93.90;;;;;;4982975;28;21097;-72
2021/03/25 08:11:22;;;;;;;51.50;18.37;;;9.40;93.90;;;;;;4991174;28;20201;-72
2021/03/25 08:13:55;;;;;;;43.40;17.57;;;9.50;93.10;;;;;;4991970;28;20405;-73
2021/03/25 08:16:22;;;;;;;48.50;19.83;;;9.60;93.20;;;;;;5000189;28;20435;-72
2021/03/25 08:19:20;;;;;;;40.80;18.30;;;9.70;92.60;;;;;;5006053;28;20522;-73
2021/03/25 08:22:36;;;;;;;38.93;17.70;;;9.90;92.70;;;;;;5003524;28;20461;-73
2021/03/25 08:25:36;;;;;;;47.73;18.53;;;10.00;92.30;;;;;;4985664;28;20456;-73
2021/03/25 08:28:10;;;;;;;45.40;17.00;;;10.20;92.00;;;;;;5001299;28;20503;-72
2021/03/25 08:30:51;;;;;;;45.13;18.67;;;10.40;91.90;;;;;;5000775;28;20611;-72
2021/03/25 08:33:44;;;;;;;39.17;17.43;;;10.60;91.20;;;;;;4995561;28;20424;-72
2021/03/25 08:36:16;;;;;;;43.03;18.00;;;10.80;90.30;;;;;;4990360;28;20432;-71
2021/03/25 08:38:51;;;;;;;44.90;17.50;;;11.00;90.50;;;;;;4989839;28;20420;-70
2021/03/25 08:41:28;;;;;;;43.90;19.03;;;11.20;90.10;;;;;;4991365;28;20425;-71
2021/03/25 08:44:20;;;;;;;50.67;21.00;;;11.40;89.40;;;;;;4990864;28;20411;-70
2021/03/25 08:46:55;;;;;;;45.37;17.53;;;11.50;89.20;;;;;;4997177;28;20482;-70
2021/03/25 08:49:46;;;;;;;42.93;17.97;;;11.60;88.20;;;;;;5009571;28;20443;-70
2021/03/25 08:52:15;;;;;;;41.80;19.43;;;11.80;89.00;;;;;;5010430;28;20494;-70
2021/03/25 08:54:48;;;;;;;47.20;18.17;;;11.90;88.10;;;;;;5009553;28;20419;-70
2021/03/25 08:57:24;;;;;;;46.10;17.87;;;12.00;88.00;;;;;;5011089;28;20417;-71
2021/03/25 09:00:08;;;;;;;48.50;19.20;;;12.20;86.90;;;;;;5008976;28;20434;-70
2021/03/25 09:02:41;;;;;;;48.23;17.90;;;12.30;88.20;;;;;;5008299;28;20972;-70
2021/03/25 09:05:09;;;;;;;48.87;20.03;;;12.50;87.80;;;;;;5006182;28;20474;-71
2021/03/25 09:07:37;;;;;;;46.63;20.43;;;12.70;87.00;;;;;;5002202;28;20484;-71
2021/03/25 09:10:24;;;;;;;37.37;18.30;;;12.80;86.10;;;;;;4990668;28;20898;-71
2021/03/25 09:12:52;;;;;;;46.50;19.87;;;12.90;86.00;;;;;;4989662;28;20417;-71
2021/03/25 09:15:20;;;;;;;48.90;19.57;;;13.00;87.10;;;;;;4990964;28;20845;-70
2021/03/25 09:18:07;;;;;;;49.40;19.50;;;13.10;86.10;;;;;;4989472;28;20432;-71
2021/03/25 09:20:37;;;;;;;44.03;19.10;;;13.10;85.30;;;;;;4990965;28;20409;-71
2021/03/25 09:23:31;;;;;;;47.30;18.90;;;13.10;85.30;;;;;;4989626;28;20424;-71
2021/03/25 09:25:59;;;;;;;57.53;20.80;;;13.40;85.60;;;;;;4990429;28;20832;-71
2021/03/25 09:28:45;;;;;;;46.43;20.10;;;13.50;84.70;;;;;;4989726;28;20516;-71
2021/03/25 09:31:15;;;;;;;45.10;19.30;;;13.60;83.70;;;;;;5012947;28;20436;-71
2021/03/25 09:33:55;;;;;;;54.93;19.50;;;13.60;85.20;;;;;;5029266;28;20443;-71
2021/03/25 09:36:21;;;;;;;47.87;19.33;;;13.60;83.90;;;;;;5028803;28;20810;-71
2021/03/25 09:38:59;;;;;;;49.40;17.63;;;13.70;84.00;;;;;;5028783;28;21005;-71
2021/03/25 09:41:24;;;;;;;54.43;19.80;;;13.90;83.40;;;;;;5028417;28;20231;-71
2021/03/25 09:44:17;;;;;;;56.83;19.23;;;14.00;83.00;;;;;;5028637;28;20847;-71
2021/03/25 09:46:45;;;;;;;49.00;19.83;;;14.10;82.80;;;;;;5028594;28;20208;-72
2021/03/25 09:49:20;;;;;;;52.30;19.47;;;14.10;82.40;;;;;;5028564;28;20416;-71
2021/03/25 09:52:10;;;;;;;50.53;20.27;;;14.30;83.00;;;;;;5028619;28;20430;-71
2021/03/25 09:54:37;;;;;;;49.80;20.37;;;14.40;82.30;;;;;;5029849;28;20419;-71
2021/03/25 09:57:25;;;;;;;48.90;19.83;;;14.40;82.10;;;;;;5028769;28;20422;-71
2021/03/25 09:59:55;;;;;;;52.53;20.03;;;14.50;82.40;;;;;;5028372;28;20403;-71
2021/03/25 10:02:39;;;;;;;43.20;19.70;;;14.50;82.00;;;;;;5029453;28;20442;-71
2021/03/25 10:05:33;;;;;;;46.60;19.63;;;14.60;82.30;;;;;;5030367;28;20407;-72
2021/03/25 10:08:20;;;;;;;57.40;20.70;;;14.50;81.50;;;;;;5032391;28;20415;-72
2021/03/25 10:11:00;;;;;;;45.00;19.00;;;14.70;82.70;;;;;;5031971;28;20435;-71
2021/03/25 10:13:41;;;;;;;47.20;19.57;;;14.60;81.70;;;;;;5033346;28;20422;-71
2021/03/25 10:16:25;;;;;;;51.90;20.47;;;14.50;81.70;;;;;;5033000;28;20403;-71
2021/03/25 10:18:53;;;;;;;55.47;21.47;;;14.70;83.00;;;;;;5031797;28;20418;-71
2021/03/25 10:21:44;;;;;;;46.90;20.50;;;14.90;82.40;;;;;;5024967;28;20506;-71
2021/03/25 10:24:42;;;;;;;53.00;20.50;;;15.00;82.70;;;;;;5005728;28;20897;-71
2021/03/25 10:27:41;;;;;;;53.47;19.67;;;15.20;82.00;;;;;;5007283;28;20532;-73
2021/03/25 10:30:33;;;;;;;55.60;23.37;;;15.50;81.40;;;;;;5013229;28;20409;-73
2021/03/25 10:33:05;;;;;;;52.13;21.80;;;15.40;80.60;;;;;;5012140;28;20427;-73
2021/03/25 10:35:39;;;;;;;56.17;22.40;;;15.40;80.90;;;;;;5012391;28;20514;-73
2021/03/25 10:38:08;;;;;;;52.30;21.37;;;15.60;81.00;;;;;;5021827;28;20408;-72
2021/03/25 10:40:40;;;;;;;57.30;22.60;;;15.60;80.10;;;;;;5031347;28;20931;-72
2021/03/25 10:43:17;;;;;;;54.73;22.37;;;15.60;80.90;;;;;;5032792;28;20407;-72
2021/03/25 10:45:49;;;;;;;56.40;20.83;;;15.80;80.50;;;;;;5032698;28;20447;-72
2021/03/25 10:48:33;;;;;;;56.13;19.80;;;15.80;80.30;;;;;;5013286;28;20956;-72
2021/03/25 10:51:21;;;;;;;58.00;21.00;;;15.90;80.50;;;;;;5011724;28;20498;-72
2021/03/25 10:53:53;;;;;;;51.33;21.87;;;15.90;79.70;;;;;;5014196;28;20491;-72
2021/03/25 10:56:29;;;;;;;53.93;23.10;;;16.00;80.30;;;;;;5006757;28;20518;-72
2021/03/25 10:59:03;;;;;;;48.43;21.20;;;16.10;80.50;;;;;;5012006;28;20408;-73
2021/03/25 11:01:31;;;;;;;48.50;20.27;;;16.20;79.90;;;;;;5018311;28;20493;-73
2021/03/25 11:03:58;;;;;;;43.10;19.73;;;16.20;79.10;;;;;;5031781;28;20415;-73
2021/03/25 11:06:31;;;;;;;48.77;21.27;;;16.30;80.50;;;;;;5031181;28;20450;-73
2021/03/25 11:09:16;;;;;;;50.80;22.20;;;16.20;80.00;;;;;;5032625;28;20490;-73
2021/03/25 11:11:43;;;;;;;49.87;21.10;;;16.20;80.00;;;;;;5031671;28;20443;-73
2021/03/25 11:14:20;;;;;;;49.83;20.93;;;16.20;79.90;;;;;;5026123;28;20428;-73
2021/03/25 11:16:55;;;;;;;49.10;20.60;;;16.40;80.20;;;;;;5011448;28;20811;-72
2021/03/25 11:19:24;;;;;;;46.93;19.10;;;16.60;79.60;;;;;;5011198;28;20424;-73
2021/03/25 11:21:50;;;;;;;52.17;21.00;;;16.80;80.30;;;;;;5012193;28;20439;-73
2021/03/25 11:24:34;;;;;;;52.87;21.90;;;17.10;79.90;;;;;;5012317;28;20454;-73
2021/03/25 11:27:06;;;;;;;52.17;21.17;;;16.90;77.70;;;;;;5010830;28;20487;-73
2021/03/25 11:29:38;;;;;;;49.03;20.33;;;17.00;78.20;;;;;;5010868;28;20412;-74
2021/03/25 11:32:16;;;;;;;55.73;22.80;;;17.00;78.10;;;;;;5010514;28;20483;-73
2021/03/25 11:34:44;;;;;;;53.83;21.33;;;17.10;77.60;;;;;;5011867;28;20815;-73
2021/03/25 11:37:35;;;;;;;51.50;22.50;;;17.30;77.80;;;;;;5014305;28;20464;-73
2021/03/25 11:40:07;;;;;;;45.53;21.23;;;17.50;77.40;;;;;;5030415;28;20807;-73
2021/03/25 11:42:33;;;;;;;49.13;20.20;;;17.60;77.10;;;;;;5031701;28;20951;-73
2021/03/25 11:44:59;;;;;;;55.10;20.33;;;17.50;76.60;;;;;;5030106;28;20412;-72
2021/03/25 11:47:36;;;;;;;52.67;20.27;;;17.50;78.40;;;;;;5030237;28;20415;-73
2021/03/25 11:50:33;;;;;;;52.37;20.80;;;17.60;76.50;;;;;;5030125;28;20407;-73
2021/03/25 11:53:02;;;;;;;56.30;21.97;;;17.90;77.20;;;;;;5028641;28;20477;-73
2021/03/25 11:55:42;;;;;;;48.37;20.40;;;17.90;75.60;;;;;;5031303;28;20491;-73
2021/03/25 11:58:17;;;;;;;51.67;21.20;;;17.80;76.80;;;;;;5031637;28;20774;-73
2021/03/25 12:01:01;;;;;;;54.30;23.93;;;17.90;77.10;;;;;;5029948;28;20863;-73
2021/03/25 12:03:33;;;;;;;44.00;20.30;;;18.10;76.00;;;;;;5029880;28;20516;-73
2021/03/25 12:05:59;;;;;;;50.57;21.40;;;18.20;77.10;;;;;;5029844;28;20466;-74
2021/03/25 12:08:29;;;;;;;45.80;20.30;;;18.30;75.10;;;;;;5029688;28;20784;-73
2021/03/25 12:11:04;;;;;;;42.00;20.50;;;18.30;75.50;;;;;;5030810;28;20426;-74
2021/03/25 12:13:31;;;;;;;52.83;21.23;;;18.10;75.60;;;;;;5031028;28;20414;-73
2021/03/25 12:15:57;;;;;;;55.27;23.60;;;18.30;77.60;;;;;;5029453;28;21022;-73
2021/03/25 12:18:32;;;;;;;51.07;21.70;;;18.70;76.60;;;;;;5030922;28;20507;-73
2021/03/25 12:21:05;;;;;;;49.47;20.93;;;19.00;75.70;;;;;;5029926;28;20972;-73
2021/03/25 12:23:34;;;;;;;49.03;20.33;;;19.20;75.50;;;;;;5030632;28;20422;-73
2021/03/25 12:26:02;;;;;;;43.43;19.87;;;19.40;73.60;;;;;;5007683;28;20475;-73
2021/03/25 12:28:28;;;;;;;51.37;22.07;;;19.50;71.60;;;;;;4993017;28;20544;-73
2021/03/25 12:30:55;;;;;;;44.73;20.30;;;19.60;71.80;;;;;;4999248;28;20468;-73
2021/03/25 12:33:22;;;;;;;43.43;19.07;;;19.80;72.50;;;;;;4998833;28;20678;-73
2021/03/25 12:35:49;;;;;;;45.73;20.67;;;20.10;72.70;;;;;;5019792;23;20507;-74
2021/03/25 12:38:15;;;;;;;43.07;19.87;;;20.10;70.80;;;;;;5017408;28;20464;-73
2021/03/25 12:40:41;;;;;;;49.40;21.80;;;19.70;71.30;;;;;;4992681;28;20442;-73
2021/03/25 12:43:07;;;;;;;52.00;21.10;;;19.70;73.20;;;;;;4978222;28;20428;-73
2021/03/25 12:45:42;;;;;;;47.30;19.90;;;19.70;72.20;;;;;;4971886;28;21053;-73
2021/03/25 12:48:09;;;;;;;48.13;21.63;;;19.50;72.20;;;;;;4981554;28;20514;-74
2021/03/25 12:50:35;;;;;;;45.30;21.60;;;19.30;72.50;;;;;;4970679;28;20832;-73
2021/03/25 12:53:03;;;;;;;41.73;18.83;;;19.20;72.10;;;;;;4970617;28;20445;-73
2021/03/25 12:55:29;;;;;;;51.20;21.03;;;19.20;72.00;;;;;;4971919;28;20465;-73
2021/03/25 12:57:55;;;;;;;47.03;21.03;;;19.50;72.20;;;;;;4972060;28;20926;-74
2021/03/25 13:00:35;;;;;;;41.60;19.03;;;19.80;71.40;;;;;;4970523;28;20797;-74
2021/03/25 13:03:02;;;;;;;45.50;19.73;;;19.90;72.00;;;;;;4970291;28;20414;-73
2021/03/25 13:05:28;;;;;;;48.90;20.70;;;20.30;70.20;;;;;;4972196;28;20458;-73
2021/03/25 13:07:53;;;;;;;53.20;19.90;;;20.10;69.70;;;;;;4970513;28;20961;-73
2021/03/25 13:10:28;;;;;;;50.37;21.40;;;20.00;70.20;;;;;;4969834;28;20170;-73
2021/03/25 13:12:59;;;;;;;47.97;20.57;;;19.90;70.60;;;;;;4971666;28;20166;-73
2021/03/25 13:15:26;;;;;;;49.27;20.50;;;20.00;70.80;;;;;;4970046;28;20422;-74
2021/03/25 13:17:52;;;;;;;47.63;19.47;;;20.10;71.00;;;;;;4970217;28;21025;-74
2021/03/25 13:20:21;;;;;;;43.13;18.30;;;20.10;71.00;;;;;;4970079;28;20500;-73
2021/03/25 13:22:47;;;;;;;48.20;20.10;;;20.00;71.10;;;;;;4970919;28;20205;-73
2021/03/25 13:25:37;;;;;;;44.70;21.57;;;20.10;70.00;;;;;;4970251;28;20802;-73
2021/03/25 13:28:05;;;;;;;44.70;21.27;;;20.10;70.50;;;;;;4971109;28;20444;-73
2021/03/25 13:30:31;;;;;;;48.73;20.90;;;19.80;70.40;;;;;;4970294;28;20421;-74